Time;durP1;ratioP1;P1;durP2;ratioP2;P2;SDS_P1;SDS_P2;PMS_P1;PMS_P2;Temp;Humidity;BMP_temperature;BMP_pressure;BME280_temperature;BME280_humidity;BME280_pressure;Samples;Min_cycle;Max_cycle;Signal;HPM_P1;HPM_P2
2021/03/11 00:00:44;;;;;;;33.40;21.30;;;6.40;72.40;;;;;;5097547;28;20372;-62
2021/03/11 00:03:10;;;;;;;31.27;21.20;;;6.40;72.50;;;;;;5097499;28;20039;-63
2021/03/11 00:05:37;;;;;;;37.88;22.70;;;6.40;72.40;;;;;;5115997;28;20036;-63
2021/03/11 00:08:03;;;;;;;30.83;20.90;;;6.40;72.20;;;;;;5104472;28;20122;-62
2021/03/11 00:10:29;;;;;;;33.85;21.48;;;6.40;72.30;;;;;;5115304;28;20490;-63
2021/03/11 00:12:55;;;;;;;30.60;20.67;;;6.40;72.30;;;;;;5115060;28;20102;-63
2021/03/11 00:15:22;;;;;;;31.92;21.83;;;6.40;72.10;;;;;;5115526;28;20035;-62
2021/03/11 00:17:48;;;;;;;34.25;21.67;;;6.50;71.60;;;;;;5115033;28;20032;-64
2021/03/11 00:20:16;;;;;;;27.83;19.77;;;6.40;71.40;;;;;;5097392;28;20038;-63
2021/03/11 00:22:42;;;;;;;31.85;20.92;;;6.50;71.40;;;;;;5113465;28;20043;-64
2021/03/11 00:25:09;;;;;;;27.55;18.88;;;6.50;71.20;;;;;;5114775;28;20031;-64
2021/03/11 00:27:35;;;;;;;29.05;19.33;;;6.50;70.90;;;;;;5114741;28;20525;-64
2021/03/11 00:30:01;;;;;;;31.08;19.58;;;6.50;70.40;;;;;;5114725;28;20023;-65
2021/03/11 00:32:26;;;;;;;29.52;19.38;;;6.50;70.70;;;;;;5101638;28;20082;-63
2021/03/11 00:34:52;;;;;;;28.13;18.98;;;6.50;70.50;;;;;;5079532;28;20051;-64
2021/03/11 00:37:18;;;;;;;27.25;18.73;;;6.50;70.30;;;;;;5116268;28;20031;-63
2021/03/11 00:39:43;;;;;;;27.65;19.38;;;6.50;70.20;;;;;;5115293;28;20510;-64
2021/03/11 00:42:09;;;;;;;32.22;18.60;;;6.60;70.00;;;;;;5098192;28;20048;-64
2021/03/11 00:44:34;;;;;;;27.35;17.90;;;6.70;69.50;;;;;;5094351;28;20514;-62
2021/03/11 00:47:01;;;;;;;29.02;18.83;;;6.70;69.20;;;;;;5110358;28;20034;-63
2021/03/11 00:49:26;;;;;;;31.40;20.00;;;6.70;69.30;;;;;;5114802;28;20035;-64
2021/03/11 00:51:52;;;;;;;28.20;18.88;;;6.70;69.40;;;;;;5100264;28;20024;-63
2021/03/11 00:54:17;;;;;;;30.13;18.80;;;6.60;69.40;;;;;;5095090;28;20032;-64
2021/03/11 00:56:43;;;;;;;26.60;18.25;;;6.60;69.40;;;;;;5095762;28;20134;-64
2021/03/11 00:59:08;;;;;;;24.00;18.02;;;6.60;69.30;;;;;;5090575;28;20526;-63
2021/03/11 01:01:34;;;;;;;26.58;17.15;;;6.60;69.10;;;;;;5068814;28;20043;-64
2021/03/11 01:04:00;;;;;;;26.15;18.00;;;6.60;69.10;;;;;;5074377;28;20467;-63
2021/03/11 01:06:26;;;;;;;27.90;17.67;;;6.60;69.30;;;;;;5104356;28;20032;-64
2021/03/11 01:08:51;;;;;;;31.65;17.55;;;6.60;69.30;;;;;;5115221;28;20039;-63
2021/03/11 01:11:17;;;;;;;25.27;17.67;;;6.70;68.90;;;;;;5105705;28;20379;-63
2021/03/11 01:13:43;;;;;;;26.25;17.10;;;6.70;68.80;;;;;;5075971;28;20024;-64
2021/03/11 01:16:08;;;;;;;23.67;16.73;;;6.70;68.80;;;;;;5101003;28;20385;-64
2021/03/11 01:18:34;;;;;;;26.20;19.10;;;6.70;68.70;;;;;;5079256;28;20092;-64
2021/03/11 01:21:00;;;;;;;26.35;17.73;;;6.70;68.60;;;;;;5108903;28;20060;-64
2021/03/11 01:23:25;;;;;;;26.50;17.35;;;6.80;68.80;;;;;;5094057;28;20111;-63
2021/03/11 01:25:51;;;;;;;24.17;16.65;;;6.70;68.70;;;;;;5110347;28;20036;-63
2021/03/11 01:28:16;;;;;;;25.17;17.15;;;6.80;68.20;;;;;;5114447;28;20029;-64
2021/03/11 01:30:42;;;;;;;24.95;17.48;;;6.70;68.40;;;;;;5112155;28;20523;-64
2021/03/11 01:33:08;;;;;;;24.65;16.13;;;6.70;68.50;;;;;;5113975;28;20035;-63
2021/03/11 01:35:33;;;;;;;26.70;17.08;;;6.70;68.50;;;;;;5113921;28;20039;-63
2021/03/11 01:37:59;;;;;;;26.27;18.17;;;6.80;68.40;;;;;;5094218;28;20118;-63
2021/03/11 01:40:24;;;;;;;32.00;17.45;;;6.70;68.20;;;;;;5086424;28;20031;-63
2021/03/11 01:42:50;;;;;;;25.90;17.27;;;6.70;68.60;;;;;;5113063;28;20047;-63
2021/03/11 01:45:17;;;;;;;24.23;17.75;;;6.80;68.30;;;;;;5078577;28;20460;-64
2021/03/11 01:47:43;;;;;;;27.73;17.90;;;6.70;68.50;;;;;;5111757;28;20027;-64
2021/03/11 01:50:09;;;;;;;27.80;18.27;;;6.70;68.50;;;;;;5113703;28;20072;-63
2021/03/11 01:52:36;;;;;;;27.08;18.30;;;6.70;68.70;;;;;;5079706;28;20036;-63
2021/03/11 01:55:03;;;;;;;28.17;18.40;;;6.70;68.90;;;;;;5093048;28;20059;-63
2021/03/11 01:57:29;;;;;;;26.05;17.40;;;6.70;69.10;;;;;;5088668;28;20339;-64
2021/03/11 01:59:55;;;;;;;28.33;17.13;;;6.70;69.10;;;;;;5092989;28;20040;-63
2021/03/11 02:02:20;;;;;;;25.20;18.38;;;6.70;69.30;;;;;;5105172;28;20475;-64
2021/03/11 02:04:46;;;;;;;32.63;19.88;;;6.70;69.40;;;;;;5113471;28;20080;-64
2021/03/11 02:07:12;;;;;;;27.25;18.08;;;6.60;69.80;;;;;;5084158;28;20039;-64
2021/03/11 02:09:37;;;;;;;30.95;19.23;;;6.70;70.20;;;;;;5093050;28;20399;-64
2021/03/11 02:12:12;;;;;;;29.15;19.73;;;6.70;70.70;;;;;;5101556;28;20107;-64
2021/03/11 02:15:03;;;;;;;27.85;18.83;;;6.70;70.80;;;;;;5113195;28;20024;-63
2021/03/11 02:17:39;;;;;;;29.08;20.05;;;6.60;71.10;;;;;;5101205;28;20047;-63
2021/03/11 02:20:32;;;;;;;26.58;18.50;;;6.70;71.60;;;;;;5093068;28;20032;-63
2021/03/11 02:23:21;;;;;;;27.73;18.50;;;6.60;71.80;;;;;;5107105;28;20035;-62
2021/03/11 02:25:58;;;;;;;29.13;19.08;;;6.70;71.90;;;;;;5102596;28;20040;-65
2021/03/11 02:28:32;;;;;;;28.98;20.98;;;6.70;72.00;;;;;;5074703;28;20487;-63
2021/03/11 02:30:58;;;;;;;29.42;19.95;;;6.60;72.30;;;;;;5086849;28;20036;-63
2021/03/11 02:33:26;;;;;;;28.75;20.15;;;6.70;72.30;;;;;;5118271;28;20028;-63
2021/03/11 02:35:56;;;;;;;29.77;20.85;;;6.70;72.30;;;;;;5107006;28;20062;-63
2021/03/11 02:38:23;;;;;;;30.42;20.75;;;6.70;72.00;;;;;;5075196;28;20111;-64
2021/03/11 02:40:50;;;;;;;28.17;19.05;;;6.70;71.90;;;;;;5106415;28;20031;-63
2021/03/11 02:43:17;;;;;;;28.45;18.73;;;6.60;71.90;;;;;;5112847;28;20135;-63
2021/03/11 02:45:43;;;;;;;25.98;16.73;;;6.60;72.10;;;;;;5103187;28;20032;-64
2021/03/11 02:48:12;;;;;;;27.67;17.40;;;6.60;72.50;;;;;;5092448;28;20043;-63
2021/03/11 02:50:38;;;;;;;23.50;16.13;;;6.70;72.10;;;;;;5099870;28;20558;-63
2021/03/11 02:53:08;;;;;;;26.33;16.55;;;6.70;72.50;;;;;;5112424;28;20478;-64
2021/03/11 02:55:35;;;;;;;23.52;16.50;;;6.70;72.50;;;;;;5092439;28;20028;-63
2021/03/11 02:58:02;;;;;;;24.90;16.35;;;6.70;72.20;;;;;;5107888;28;20035;-63
2021/03/11 03:00:30;;;;;;;24.98;16.13;;;6.70;71.90;;;;;;5093816;28;20039;-64
2021/03/11 03:02:56;;;;;;;21.92;15.95;;;6.80;71.70;;;;;;5094321;28;20028;-64
2021/03/11 03:05:28;;;;;;;22.75;15.35;;;6.70;72.30;;;;;;5108036;28;20036;-64
2021/03/11 03:07:55;;;;;;;24.67;16.15;;;6.80;72.10;;;;;;5092038;28;20036;-64
2021/03/11 03:10:26;;;;;;;24.25;16.30;;;6.80;72.00;;;;;;5095026;28;20028;-65
2021/03/11 03:12:54;;;;;;;22.52;16.00;;;6.70;71.70;;;;;;5094268;28;20110;-64
2021/03/11 03:15:21;;;;;;;22.00;16.10;;;6.80;71.70;;;;;;5109332;28;20039;-64
2021/03/11 03:17:48;;;;;;;24.50;16.23;;;6.80;71.20;;;;;;5092817;28;20028;-63
2021/03/11 03:20:16;;;;;;;20.63;15.10;;;6.70;71.70;;;;;;5075168;28;20089;-63
2021/03/11 03:22:42;;;;;;;23.60;16.05;;;6.70;71.70;;;;;;5112066;28;20040;-63
2021/03/11 03:25:10;;;;;;;24.17;16.23;;;6.70;71.70;;;;;;5112365;28;20019;-63
2021/03/11 03:27:36;;;;;;;23.52;17.23;;;6.70;71.90;;;;;;5112139;28;20027;-62
2021/03/11 03:30:08;;;;;;;23.50;16.45;;;6.70;73.20;;;;;;5111903;28;20038;-64
2021/03/11 03:32:34;;;;;;;25.52;17.88;;;6.60;73.70;;;;;;5093181;28;20024;-63
2021/03/11 03:35:00;;;;;;;26.13;18.08;;;6.60;74.30;;;;;;5092149;28;20500;-63
2021/03/11 03:37:26;;;;;;;28.17;19.42;;;6.40;74.90;;;;;;5109190;28;20066;-62
2021/03/11 03:39:51;;;;;;;29.20;18.63;;;6.40;75.10;;;;;;5090816;28;20406;-63
2021/03/11 03:42:17;;;;;;;26.77;18.10;;;6.40;75.20;;;;;;5106382;28;20043;-64
2021/03/11 03:44:45;;;;;;;26.63;18.33;;;6.30;75.40;;;;;;5112220;28;20057;-63
2021/03/11 03:47:12;;;;;;;28.63;19.95;;;6.30;75.30;;;;;;5110513;28;20035;-64
2021/03/11 03:49:41;;;;;;;28.98;19.48;;;6.30;75.10;;;;;;5093862;28;20038;-64
2021/03/11 03:52:08;;;;;;;29.48;19.67;;;6.30;75.30;;;;;;5098940;28;20044;-64
2021/03/11 03:54:42;;;;;;;28.77;18.42;;;6.30;75.10;;;;;;5091890;28;20056;-64
2021/03/11 03:57:14;;;;;;;28.65;19.45;;;6.30;75.10;;;;;;5102928;28;20031;-64
2021/03/11 03:59:41;;;;;;;28.02;19.83;;;6.30;75.40;;;;;;5092397;28;20035;-63
2021/03/11 04:02:09;;;;;;;27.70;19.30;;;6.20;75.60;;;;;;5102942;28;20521;-63
2021/03/11 04:04:38;;;;;;;28.73;20.33;;;6.10;75.80;;;;;;5111703;28;20032;-64
2021/03/11 04:07:07;;;;;;;30.95;19.90;;;6.10;75.90;;;;;;5083413;28;20036;-64
2021/03/11 04:09:33;;;;;;;30.85;20.45;;;6.20;75.70;;;;;;5091551;28;20036;-64
2021/03/11 04:11:59;;;;;;;30.98;20.50;;;6.20;75.80;;;;;;5100130;28;20036;-64
2021/03/11 04:14:26;;;;;;;30.33;19.67;;;6.20;75.90;;;;;;5111691;28;20031;-63
2021/03/11 04:16:53;;;;;;;29.95;20.77;;;6.10;76.00;;;;;;5110025;28;20084;-64
2021/03/11 04:19:20;;;;;;;29.15;19.90;;;6.10;76.00;;;;;;5111491;28;20501;-63
2021/03/11 04:21:47;;;;;;;30.13;20.98;;;6.10;75.80;;;;;;5091590;28;20079;-63
2021/03/11 04:24:13;;;;;;;33.65;20.83;;;6.20;76.50;;;;;;5111441;28;20118;-63
2021/03/11 04:26:39;;;;;;;30.98;19.83;;;6.20;75.90;;;;;;5092539;28;20387;-63
2021/03/11 04:29:06;;;;;;;30.52;20.65;;;6.20;75.70;;;;;;5094973;28;20502;-63
2021/03/11 04:31:33;;;;;;;29.33;19.83;;;6.20;75.60;;;;;;5095005;28;20376;-64
2021/03/11 04:33:59;;;;;;;32.20;22.15;;;6.30;75.50;;;;;;5094685;28;20032;-64
2021/03/11 04:36:26;;;;;;;30.88;20.30;;;6.30;75.50;;;;;;5095314;28;20075;-63
2021/03/11 04:38:52;;;;;;;30.15;19.55;;;6.40;75.20;;;;;;5115045;28;20107;-63
2021/03/11 04:41:19;;;;;;;29.88;18.90;;;6.40;74.90;;;;;;5118325;28;20118;-64
2021/03/11 04:43:44;;;;;;;29.02;19.25;;;6.40;74.80;;;;;;5118743;28;20042;-63
2021/03/11 04:46:10;;;;;;;26.48;18.85;;;6.50;75.20;;;;;;5118643;28;20123;-63
2021/03/11 04:48:37;;;;;;;25.05;17.65;;;6.50;75.10;;;;;;5094602;28;20039;-63
2021/03/11 04:51:04;;;;;;;28.98;18.50;;;6.60;75.10;;;;;;5114976;28;20370;-63
2021/03/11 04:53:33;;;;;;;28.58;19.88;;;6.60;75.20;;;;;;5080708;28;20498;-63
2021/03/11 04:56:00;;;;;;;26.35;17.70;;;6.70;75.20;;;;;;5094592;28;20511;-64
2021/03/11 04:58:28;;;;;;;26.00;18.30;;;6.70;75.10;;;;;;5108786;28;20127;-64
2021/03/11 05:00:55;;;;;;;27.88;19.63;;;6.80;75.30;;;;;;5100215;28;20105;-63
2021/03/11 05:03:21;;;;;;;26.10;18.35;;;6.90;75.10;;;;;;5094480;28;20036;-63
2021/03/11 05:05:47;;;;;;;28.25;18.63;;;7.00;75.20;;;;;;5106238;28;20067;-63
2021/03/11 05:08:12;;;;;;;27.13;17.63;;;7.00;75.50;;;;;;5114531;28;20074;-63
2021/03/11 05:10:40;;;;;;;25.50;17.40;;;7.00;75.70;;;;;;5103514;28;20444;-64
2021/03/11 05:13:06;;;;;;;24.20;17.58;;;7.00;76.20;;;;;;5094257;28;20104;-63
2021/03/11 05:15:32;;;;;;;26.92;17.98;;;7.00;77.00;;;;;;5093857;28;20027;-63
2021/03/11 05:17:58;;;;;;;24.55;17.88;;;7.00;77.20;;;;;;5094696;28;20640;-63
2021/03/11 05:20:25;;;;;;;25.75;17.70;;;7.00;77.30;;;;;;5100585;28;20118;-64
2021/03/11 05:22:51;;;;;;;24.10;17.20;;;7.00;77.80;;;;;;5096362;28;20051;-64
2021/03/11 05:25:24;;;;;;;26.70;18.55;;;7.00;78.10;;;;;;5113848;28;20092;-64
2021/03/11 05:27:49;;;;;;;26.02;17.90;;;7.00;78.40;;;;;;5115064;28;20031;-63
2021/03/11 05:30:16;;;;;;;24.73;17.65;;;7.00;78.50;;;;;;5074500;28;20047;-64
2021/03/11 05:32:41;;;;;;;26.40;17.58;;;7.00;78.80;;;;;;5094215;28;20028;-64
2021/03/11 05:35:08;;;;;;;26.23;17.70;;;6.90;79.20;;;;;;5096501;28;20036;-63
2021/03/11 05:37:36;;;;;;;26.45;17.67;;;6.90;79.50;;;;;;5114543;28;20457;-63
2021/03/11 05:40:06;;;;;;;25.80;17.70;;;6.90;79.80;;;;;;5113409;28;20358;-64
2021/03/11 05:42:32;;;;;;;25.42;17.85;;;6.90;79.80;;;;;;5113254;28;20066;-63
2021/03/11 05:44:58;;;;;;;26.25;18.42;;;7.00;79.60;;;;;;5095892;28;20378;-62
2021/03/11 05:47:25;;;;;;;26.23;18.48;;;6.90;79.50;;;;;;5076934;28;20040;-63
2021/03/11 05:49:51;;;;;;;25.65;17.02;;;7.00;79.60;;;;;;5075679;28;20089;-64
2021/03/11 05:52:16;;;;;;;26.00;18.85;;;7.00;79.50;;;;;;5113905;28;20092;-64
2021/03/11 05:54:42;;;;;;;24.00;17.80;;;7.00;79.70;;;;;;5114195;28;20054;-64
2021/03/11 05:57:08;;;;;;;25.23;18.05;;;7.00;79.60;;;;;;5097394;28;20487;-64
2021/03/11 05:59:35;;;;;;;27.27;19.27;;;7.10;79.40;;;;;;5111583;28;20127;-63
2021/03/11 06:02:07;;;;;;;27.88;19.77;;;7.10;79.10;;;;;;5098733;28;20040;-63
2021/03/11 06:04:34;;;;;;;24.70;17.25;;;7.20;79.00;;;;;;5093550;28;20035;-64
2021/03/11 06:07:01;;;;;;;26.65;18.38;;;7.20;78.70;;;;;;5108827;28;20386;-64
2021/03/11 06:09:28;;;;;;;22.85;15.70;;;7.20;78.50;;;;;;5113532;28;20130;-64
2021/03/11 06:11:54;;;;;;;27.25;16.42;;;7.30;78.40;;;;;;5112826;28;20111;-63
2021/03/11 06:14:22;;;;;;;20.70;15.65;;;7.30;78.10;;;;;;5113500;28;20096;-63
2021/03/11 06:16:58;;;;;;;25.50;15.18;;;7.40;77.50;;;;;;5112885;28;20035;-63
2021/03/11 06:19:24;;;;;;;19.45;13.80;;;7.40;77.20;;;;;;5113042;28;20044;-63
2021/03/11 06:21:51;;;;;;;27.33;17.48;;;7.40;76.90;;;;;;5111321;28;20552;-64
2021/03/11 06:24:17;;;;;;;20.48;14.88;;;7.50;76.80;;;;;;5113175;28;20118;-63
2021/03/11 06:26:43;;;;;;;19.30;13.35;;;7.50;76.60;;;;;;5112619;28;20097;-63
2021/03/11 06:29:08;;;;;;;20.15;14.52;;;7.60;76.30;;;;;;5113511;28;20039;-64
2021/03/11 06:31:35;;;;;;;20.92;14.07;;;7.70;76.00;;;;;;5105691;28;20027;-63
2021/03/11 06:34:02;;;;;;;18.92;13.63;;;7.70;76.00;;;;;;5092735;28;20028;-64
2021/03/11 06:36:31;;;;;;;19.05;13.55;;;7.70;76.00;;;;;;5076389;28;20086;-64
2021/03/11 06:38:58;;;;;;;20.67;14.10;;;7.70;76.20;;;;;;5092337;28;20032;-65
2021/03/11 06:41:24;;;;;;;18.52;12.38;;;7.70;76.00;;;;;;5101727;28;20457;-64
2021/03/11 06:44:00;;;;;;;20.10;14.20;;;7.80;76.00;;;;;;5094989;28;20039;-62
2021/03/11 06:46:29;;;;;;;20.85;13.93;;;7.80;76.00;;;;;;5113410;28;20039;-65
2021/03/11 06:49:10;;;;;;;20.13;13.38;;;7.80;76.10;;;;;;5096371;28;20104;-64
2021/03/11 06:51:36;;;;;;;20.63;12.95;;;7.90;75.70;;;;;;5093305;28;20034;-64
2021/03/11 06:54:03;;;;;;;18.58;12.88;;;7.80;75.90;;;;;;5092385;28;20024;-64
2021/03/11 06:56:29;;;;;;;21.70;13.57;;;7.80;76.20;;;;;;5095390;28;20432;-64
2021/03/11 06:59:03;;;;;;;25.17;15.88;;;7.90;75.80;;;;;;5091212;28;20036;-65
2021/03/11 07:01:30;;;;;;;18.98;12.25;;;8.00;75.80;;;;;;5094648;28;20024;-64
2021/03/11 07:04:03;;;;;;;15.00;11.13;;;7.90;75.80;;;;;;5112467;28;20026;-64
2021/03/11 07:06:30;;;;;;;16.60;12.27;;;7.90;75.80;;;;;;5111849;28;20032;-64
2021/03/11 07:08:56;;;;;;;16.20;11.20;;;8.00;75.90;;;;;;5094887;28;20032;-65
2021/03/11 07:11:22;;;;;;;15.38;10.43;;;8.10;75.70;;;;;;5094832;28;20061;-64
2021/03/11 07:13:48;;;;;;;15.07;11.05;;;8.00;75.80;;;;;;5115436;28;20106;-62
2021/03/11 07:16:18;;;;;;;16.70;10.88;;;8.10;75.90;;;;;;5115372;28;20128;-64
2021/03/11 07:18:45;;;;;;;15.32;10.57;;;8.10;75.80;;;;;;5095825;28;20044;-63
2021/03/11 07:21:12;;;;;;;15.73;11.25;;;8.10;76.00;;;;;;5095157;28;20059;-64
2021/03/11 07:23:49;;;;;;;17.20;10.73;;;8.10;76.20;;;;;;5112205;28;20494;-64
2021/03/11 07:26:16;;;;;;;13.82;10.32;;;8.10;76.10;;;;;;5094044;28;20498;-64
2021/03/11 07:28:41;;;;;;;16.23;11.10;;;8.10;76.00;;;;;;5093269;28;20084;-64
2021/03/11 07:31:07;;;;;;;13.48;10.15;;;8.20;76.20;;;;;;5105742;28;20487;-65
2021/03/11 07:33:35;;;;;;;16.02;10.55;;;8.10;76.30;;;;;;5095756;28;20032;-64
2021/03/11 07:36:04;;;;;;;16.13;11.40;;;8.10;76.50;;;;;;5099273;28;20046;-65
2021/03/11 07:38:31;;;;;;;15.90;10.55;;;8.10;76.90;;;;;;5097267;28;20432;-64
2021/03/11 07:41:06;;;;;;;14.73;10.73;;;8.10;76.90;;;;;;5097285;28;20089;-64
2021/03/11 07:43:32;;;;;;;15.82;10.60;;;8.10;77.00;;;;;;5114877;28;20051;-64
2021/03/11 07:46:03;;;;;;;17.65;11.30;;;8.20;76.80;;;;;;5090937;28;20036;-64
2021/03/11 07:48:30;;;;;;;13.18;10.25;;;8.30;76.50;;;;;;5094465;28;20077;-63
2021/03/11 07:50:56;;;;;;;14.05;9.68;;;8.20;76.40;;;;;;5098094;28;20077;-64
2021/03/11 07:53:24;;;;;;;15.70;10.93;;;8.20;76.60;;;;;;5097212;28;20076;-65
2021/03/11 07:55:51;;;;;;;16.55;11.50;;;8.20;76.40;;;;;;5113681;28;20035;-64
2021/03/11 07:58:22;;;;;;;13.63;10.10;;;8.30;76.40;;;;;;5101381;28;20031;-64
2021/03/11 08:00:49;;;;;;;17.48;11.07;;;8.20;76.40;;;;;;5100292;28;20100;-63
2021/03/11 08:03:25;;;;;;;14.70;10.63;;;8.30;76.30;;;;;;5119280;28;20030;-63
2021/03/11 08:05:51;;;;;;;14.32;10.32;;;8.30;76.30;;;;;;5110436;28;20046;-64
2021/03/11 08:08:20;;;;;;;15.63;10.77;;;8.30;76.70;;;;;;5080619;28;20087;-64
2021/03/11 08:10:52;;;;;;;13.30;9.85;;;8.20;77.00;;;;;;5102240;28;20063;-65
2021/03/11 08:13:23;;;;;;;16.80;10.73;;;8.30;77.00;;;;;;5100710;28;20055;-63
2021/03/11 08:15:53;;;;;;;15.48;11.80;;;8.30;76.80;;;;;;5114348;28;20022;-63
2021/03/11 08:18:34;;;;;;;15.38;10.95;;;8.30;77.30;;;;;;5097919;28;20080;-63
2021/03/11 08:21:05;;;;;;;15.07;10.93;;;8.30;77.60;;;;;;5084769;28;20389;-64
2021/03/11 08:23:33;;;;;;;14.80;11.15;;;8.30;77.70;;;;;;5118520;28;20032;-64
2021/03/11 08:26:00;;;;;;;14.55;10.85;;;8.30;77.90;;;;;;5112307;28;20509;-64
2021/03/11 08:28:26;;;;;;;15.70;12.13;;;8.30;78.00;;;;;;5096567;28;20032;-64
2021/03/11 08:30:53;;;;;;;16.90;12.75;;;8.30;77.80;;;;;;5099484;28;20191;-65
2021/03/11 08:33:18;;;;;;;15.07;11.23;;;8.30;77.90;;;;;;5118209;28;20077;-65
2021/03/11 08:35:46;;;;;;;14.27;11.50;;;8.30;78.00;;;;;;5115570;28;20488;-64
2021/03/11 08:38:23;;;;;;;16.15;11.55;;;8.30;77.70;;;;;;5099660;28;20024;-65
2021/03/11 08:41:10;;;;;;;17.20;11.55;;;8.40;77.70;;;;;;5096657;28;20028;-64
2021/03/11 08:43:44;;;;;;;15.68;11.20;;;8.40;77.70;;;;;;5097380;28;20079;-64
2021/03/11 08:46:12;;;;;;;18.88;12.95;;;8.50;77.40;;;;;;5100650;28;20105;-65
2021/03/11 08:48:42;;;;;;;14.77;11.48;;;8.60;77.30;;;;;;5100304;28;20034;-65
2021/03/11 08:51:23;;;;;;;17.50;11.27;;;8.50;77.20;;;;;;5117205;28;20031;-64
2021/03/11 08:53:52;;;;;;;15.90;11.52;;;8.50;77.20;;;;;;5102528;28;20118;-64
2021/03/11 08:56:17;;;;;;;14.63;11.55;;;8.60;77.30;;;;;;5118324;28;20122;-64
2021/03/11 08:58:59;;;;;;;17.00;11.65;;;8.60;77.30;;;;;;5108570;28;20047;-64
2021/03/11 09:01:41;;;;;;;15.30;11.70;;;8.60;77.10;;;;;;5097154;28;20498;-64
2021/03/11 09:04:24;;;;;;;16.63;11.80;;;8.70;77.30;;;;;;5095162;28;20028;-65
2021/03/11 09:07:00;;;;;;;16.85;12.00;;;8.70;77.20;;;;;;5101658;28;20091;-63
2021/03/11 09:09:46;;;;;;;16.17;12.10;;;8.80;77.10;;;;;;5099252;28;20494;-65
2021/03/11 09:12:13;;;;;;;18.63;12.68;;;8.80;77.50;;;;;;5108756;28;20126;-64
2021/03/11 09:14:42;;;;;;;19.10;13.40;;;8.80;77.90;;;;;;5097130;28;20118;-64
2021/03/11 09:17:16;;;;;;;20.38;13.50;;;8.80;78.30;;;;;;5096969;28;20028;-64
2021/03/11 09:20:00;;;;;;;16.45;12.20;;;8.80;78.80;;;;;;5096887;28;20028;-70
2021/03/11 09:22:34;;;;;;;16.52;11.43;;;8.90;78.80;;;;;;5105142;28;20518;-65
2021/03/11 09:25:10;;;;;;;17.73;11.90;;;8.90;79.10;;;;;;5117842;28;20027;-64
2021/03/11 09:27:57;;;;;;;16.73;12.13;;;8.90;79.20;;;;;;5098696;28;20433;-63
2021/03/11 09:30:37;;;;;;;14.85;12.13;;;8.90;79.80;;;;;;5116927;28;20069;-65
2021/03/11 09:33:17;;;;;;;19.00;13.15;;;8.90;80.30;;;;;;5102702;28;20426;-64
2021/03/11 09:35:43;;;;;;;16.27;11.63;;;8.90;80.90;;;;;;5095023;28;20081;-64
2021/03/11 09:38:11;;;;;;;16.85;12.55;;;8.90;81.40;;;;;;5109225;28;20448;-64
2021/03/11 09:40:42;;;;;;;17.27;12.30;;;8.80;81.80;;;;;;5098317;28;20036;-65
2021/03/11 09:43:15;;;;;;;18.50;11.20;;;8.80;82.20;;;;;;5087081;28;20042;-65
2021/03/11 09:46:00;;;;;;;16.10;11.88;;;8.80;82.50;;;;;;5096676;28;20040;-65
2021/03/11 09:48:31;;;;;;;17.00;11.85;;;8.90;82.40;;;;;;5109558;28;20028;-64
2021/03/11 09:51:03;;;;;;;15.32;11.80;;;8.90;82.50;;;;;;5098211;28;20139;-64
2021/03/11 09:53:41;;;;;;;17.17;12.02;;;8.90;82.50;;;;;;5085353;28;20506;-64
2021/03/11 09:56:12;;;;;;;18.30;11.88;;;8.90;82.50;;;;;;5096997;28;20028;-64
2021/03/11 09:58:46;;;;;;;17.30;11.15;;;9.00;82.70;;;;;;5087797;28;20447;-63
2021/03/11 10:01:21;;;;;;;25.70;12.98;;;9.00;82.00;;;;;;5096324;28;20391;-64
2021/03/11 10:03:46;;;;;;;18.75;11.05;;;9.10;82.00;;;;;;5108262;28;20039;-63
2021/03/11 10:06:15;;;;;;;17.80;11.52;;;9.10;82.00;;;;;;5115520;28;20031;-65
2021/03/11 10:08:41;;;;;;;22.20;12.77;;;9.20;81.80;;;;;;5100832;28;20135;-64
2021/03/11 10:11:20;;;;;;;17.73;12.60;;;9.20;81.80;;;;;;5092751;28;20028;-64
2021/03/11 10:14:02;;;;;;;14.45;11.25;;;9.20;81.90;;;;;;5087533;28;20036;-64
2021/03/11 10:16:31;;;;;;;13.73;11.38;;;9.30;81.80;;;;;;5113597;28;20034;-65
2021/03/11 10:19:15;;;;;;;13.35;11.18;;;9.30;82.00;;;;;;5099574;28;20128;-66
2021/03/11 10:22:14;;;;;;;12.25;9.95;;;9.30;81.90;;;;;;5074438;28;20798;-64
2021/03/11 10:24:45;;;;;;;14.02;11.05;;;9.40;81.70;;;;;;5100937;28;20055;-64
2021/03/11 10:27:25;;;;;;;12.90;9.85;;;9.40;81.60;;;;;;5095511;28;20043;-64
2021/03/11 10:30:12;;;;;;;12.85;10.52;;;9.50;81.80;;;;;;5112423;28;20642;-64
2021/03/11 10:32:39;;;;;;;12.13;9.82;;;9.50;82.00;;;;;;5112256;28;20027;-64
2021/03/11 10:35:07;;;;;;;12.77;9.70;;;9.60;82.70;;;;;;5092317;28;20018;-64
2021/03/11 10:37:39;;;;;;;15.10;9.25;;;9.60;82.50;;;;;;5092553;28;20390;-63
2021/03/11 10:40:10;;;;;;;14.18;10.23;;;9.50;82.80;;;;;;5075604;28;20051;-64
2021/03/11 10:42:48;;;;;;;13.57;9.30;;;9.60;82.80;;;;;;5090695;28;20450;-64
2021/03/11 10:45:18;;;;;;;12.18;8.55;;;9.60;82.80;;;;;;5090732;28;20127;-64
2021/03/11 10:48:00;;;;;;;10.80;8.38;;;9.60;82.90;;;;;;5092659;28;20495;-64
2021/03/11 10:50:26;;;;;;;13.35;9.00;;;9.60;82.60;;;;;;5092232;28;20129;-65
2021/03/11 10:52:55;;;;;;;12.73;9.07;;;9.70;82.90;;;;;;5104830;28;20386;-68
2021/03/11 10:55:24;;;;;;;11.90;8.55;;;9.70;82.70;;;;;;5091051;28;20051;-63
2021/03/11 10:57:50;;;;;;;13.80;8.43;;;9.90;82.40;;;;;;5105552;28;20036;-64
2021/03/11 11:00:22;;;;;;;13.63;8.32;;;9.90;82.20;;;;;;5077078;28;20505;-65
2021/03/11 11:02:52;;;;;;;13.65;8.15;;;10.00;82.00;;;;;;5109736;28;20061;-66
2021/03/11 11:05:18;;;;;;;8.55;7.38;;;10.00;82.10;;;;;;5112467;28;20082;-63
2021/03/11 11:07:44;;;;;;;7.80;6.68;;;10.00;81.80;;;;;;5098004;28;20519;-63
2021/03/11 11:10:10;;;;;;;8.65;6.28;;;10.10;81.40;;;;;;5074230;28;20032;-65
2021/03/11 11:12:35;;;;;;;7.97;6.35;;;10.20;81.10;;;;;;5104319;28;20035;-62
2021/03/11 11:15:02;;;;;;;7.85;6.40;;;10.30;80.80;;;;;;5112216;28;20044;-63
2021/03/11 11:17:28;;;;;;;9.77;7.00;;;10.40;80.20;;;;;;5084849;28;20028;-62
2021/03/11 11:19:54;;;;;;;7.88;5.90;;;10.60;79.90;;;;;;5092250;28;20459;-62
2021/03/11 11:22:19;;;;;;;7.82;6.18;;;10.70;79.00;;;;;;5099306;28;20514;-62
2021/03/11 11:24:45;;;;;;;7.90;6.10;;;10.80;78.90;;;;;;5100044;28;20130;-61
2021/03/11 11:27:13;;;;;;;6.97;5.43;;;10.90;78.30;;;;;;5111628;28;20052;-66
2021/03/11 11:29:39;;;;;;;9.40;5.97;;;11.10;77.60;;;;;;5112377;28;20114;-61
2021/03/11 11:32:06;;;;;;;11.38;6.35;;;11.20;77.20;;;;;;5069435;28;20143;-63
2021/03/11 11:34:31;;;;;;;7.55;5.70;;;11.40;76.70;;;;;;5093423;28;20024;-63
2021/03/11 11:36:57;;;;;;;6.95;5.00;;;11.60;75.80;;;;;;5101778;28;20042;-63
2021/03/11 11:39:23;;;;;;;6.63;4.72;;;11.80;75.20;;;;;;5116334;28;20036;-64
2021/03/11 11:41:50;;;;;;;8.35;4.75;;;12.00;73.80;;;;;;5115189;28;20079;-62
2021/03/11 11:44:16;;;;;;;5.63;4.47;;;11.80;74.10;;;;;;5097997;28;20059;-62
2021/03/11 11:46:43;;;;;;;4.65;4.13;;;11.70;75.90;;;;;;5095442;28;20036;-63
2021/03/11 11:49:09;;;;;;;5.35;4.45;;;11.60;75.40;;;;;;5095596;28;20032;-63
2021/03/11 11:51:35;;;;;;;4.97;4.47;;;11.70;75.00;;;;;;5096801;28;20024;-60
2021/03/11 11:54:01;;;;;;;4.82;4.05;;;11.50;75.50;;;;;;5098007;28;20486;-62
2021/03/11 11:56:26;;;;;;;5.18;4.10;;;11.50;76.30;;;;;;5104604;28;20028;-62
2021/03/11 11:58:52;;;;;;;4.95;4.30;;;11.50;76.40;;;;;;5089914;28;20115;-61
2021/03/11 12:01:17;;;;;;;4.70;4.20;;;11.50;76.60;;;;;;5116010;28;20076;-62
2021/03/11 12:03:43;;;;;;;5.55;4.40;;;11.60;76.60;;;;;;5113170;28;20118;-62
2021/03/11 12:06:09;;;;;;;6.40;4.40;;;11.70;76.40;;;;;;5097521;28;20020;-63
2021/03/11 12:08:35;;;;;;;7.63;4.45;;;11.80;76.20;;;;;;5078837;28;20028;-65
2021/03/11 12:11:01;;;;;;;4.68;4.15;;;11.90;76.10;;;;;;5116707;28;20028;-64
2021/03/11 12:13:27;;;;;;;4.97;4.47;;;11.90;75.90;;;;;;5094201;28;20049;-63
2021/03/11 12:15:53;;;;;;;5.93;4.45;;;12.00;76.40;;;;;;5095028;28;20086;-62
2021/03/11 12:18:18;;;;;;;5.13;4.47;;;12.10;76.00;;;;;;5096915;28;20482;-62
2021/03/11 12:20:44;;;;;;;7.57;4.25;;;12.10;75.00;;;;;;5077911;28;20376;-62
2021/03/11 12:23:10;;;;;;;5.15;4.28;;;12.20;74.80;;;;;;5093353;28;20127;-64
2021/03/11 12:25:36;;;;;;;4.72;4.20;;;12.20;74.90;;;;;;5113341;28;20102;-64
2021/03/11 12:28:03;;;;;;;4.95;3.90;;;12.20;74.90;;;;;;5115525;28;20062;-62
2021/03/11 12:30:29;;;;;;;4.82;4.25;;;12.20;75.10;;;;;;5110381;27;20126;-63
2021/03/11 12:32:55;;;;;;;6.45;4.30;;;12.20;75.20;;;;;;5116221;27;20027;-63
2021/03/11 12:35:23;;;;;;;6.63;4.60;;;12.30;75.30;;;;;;5106828;27;20056;-65
2021/03/11 12:37:50;;;;;;;7.25;4.15;;;12.30;75.40;;;;;;5101645;28;20111;-64
2021/03/11 12:40:16;;;;;;;5.65;4.30;;;12.40;75.10;;;;;;5110555;28;20536;-64
2021/03/11 12:42:46;;;;;;;4.28;3.80;;;12.50;74.80;;;;;;5095515;28;20047;-64
2021/03/11 12:45:12;;;;;;;5.95;4.05;;;12.60;74.10;;;;;;5096782;28;20393;-64